KMJX/MJX METAR and TAF weather

Enter ICAO airport designator
Station Type Date Time Source
KMJX METAR 2021/03/03 01:56 UTC NOAA

KMJX 030156Z AUTO 00000KT 10SM CLR M04/M09 A3015 RMK AO2 SLP216 T10441094 FZRANO


Station Type Date Time Source
KMJX Decoded METAR 2021/03/03 01:56 UTC NOAA

Station name not available
Mar 02, 2021 - 08:56 PM EST / 2021.03.03 0156 UTC
Wind: Calm:0
Visibility: 10 mile(s):0
Sky conditions: clear
Temperature: 24.1 F (-4.4 C)
Dew Point: 15.1 F (-9.4 C)
Relative Humidity: 68%
Pressure (altimeter): 30.15 in. Hg (1020 hPa)
ob: KMJX 030156Z AUTO 00000KT 10SM CLR M04/M09 A3015 RMK AO2 SLP216 T10441094 FZRANO
cycle: 2

Station Type Date Time Source
KMJX TAF UTC NOAA

Error!

Example: see airport list